< < Back
Terminal Aerodrome Forecast


Current Version              Previous Versions:   1  2  3  4  5  6  7  8  9  

Terminal Aerodrome Forecast

207
FTUS42 KGSP 241844 AAA
TAFAVL
TAF AMD
KAVL 241844Z 2419/2518 18007KT P6SM SCT021 BKN070
     FM242100 18007KT P6SM VCTS SCT030CB BKN050
     FM242300 18005KT P6SM BKN090
     FM250600 VRB02KT P6SM BKN045
      TEMPO 2509/2512 1SM BR
     FM251400 34003KT P6SM SCT045 BKN110=

Latest METAR

606
SAUS70 KWBC 242300 RRD
MTRAVL
METAR KAVL 242254Z 18006KT 10SM CLR 26/19 A3027 RMK AO2 SLP227
T02560189


USA.gov is the U.S. government's official web portal to all federal, state and local government web resources and services.